Time;durP1;ratioP1;P1;durP2;ratioP2;P2;SDS_P1;SDS_P2;PMS_P1;PMS_P2;Temp;Humidity;BMP_temperature;BMP_pressure;BME280_temperature;BME280_humidity;BME280_pressure;Samples;Min_cycle;Max_cycle;Signal;HPM_P1;HPM_P2
2022/05/07 00:00:30;;;;;;;0.50;0.50;;;9.00;99.90;;;;;;5073023;28;20164;-69
2022/05/07 00:02:56;;;;;;;2.60;1.50;;;8.90;99.90;;;;;;5073060;28;20437;-69
2022/05/07 00:05:22;;;;;;;0.30;0.30;;;8.90;99.90;;;;;;5073123;28;20453;-70
2022/05/07 00:07:47;;;;;;;0.30;0.30;;;8.90;99.90;;;;;;5073229;28;20575;-69
2022/05/07 00:10:14;;;;;;;0.30;0.30;;;8.90;99.90;;;;;;5073056;28;20169;-70
2022/05/07 00:12:40;;;;;;;1.25;0.88;;;8.90;99.90;;;;;;5073202;28;20558;-70
2022/05/07 00:15:06;;;;;;;0.30;0.30;;;8.90;99.90;;;;;;5073039;28;20189;-70
2022/05/07 00:20:17;;;;;;;0.30;0.30;;;8.90;99.90;;;;;;5073050;28;20567;-70
2022/05/07 00:22:43;;;;;;;0.30;0.30;;;8.90;99.90;;;;;;5072717;28;20215;-70
2022/05/07 00:25:09;;;;;;;0.30;0.30;;;8.90;99.90;;;;;;5072867;28;20558;-69
2022/05/07 00:27:35;;;;;;;0.30;0.30;;;8.90;99.90;;;;;;5073245;28;20765;-71
2022/05/07 00:30:01;;;;;;;0.30;0.30;;;9.00;99.90;;;;;;5072762;28;20246;-70
2022/05/07 00:32:27;;;;;;;0.30;0.30;;;9.00;99.90;;;;;;5072838;28;20676;-70
2022/05/07 00:34:52;;;;;;;0.30;0.30;;;9.00;99.90;;;;;;5073004;28;20170;-71
2022/05/07 00:37:18;;;;;;;0.30;0.30;;;9.00;99.90;;;;;;5072962;28;20473;-70
2022/05/07 00:39:43;;;;;;;0.33;0.33;;;8.90;99.90;;;;;;5072564;28;20183;-70
2022/05/07 00:42:09;;;;;;;0.30;0.30;;;8.80;99.90;;;;;;5072685;28;20197;-70
2022/05/07 00:44:35;;;;;;;0.30;0.30;;;8.70;99.90;;;;;;5072985;28;20193;-69
2022/05/07 00:47:04;;;;;;;0.30;0.30;;;8.80;99.90;;;;;;5073051;28;20164;-69
2022/05/07 00:49:29;;;;;;;0.30;0.30;;;8.70;99.90;;;;;;5076392;28;20529;-69
2022/05/07 00:51:55;;;;;;;0.30;0.30;;;8.70;99.90;;;;;;5076160;28;20201;-70
2022/05/07 00:54:23;;;;;;;0.50;0.50;;;8.60;99.90;;;;;;5076417;28;20253;-68
2022/05/07 00:56:49;;;;;;;0.40;0.40;;;8.70;99.90;;;;;;5076086;28;20221;-71
2022/05/07 00:59:14;;;;;;;0.47;0.47;;;8.80;99.90;;;;;;5076478;28;20599;-71
2022/05/07 01:01:40;;;;;;;0.30;0.30;;;8.80;99.90;;;;;;5074493;28;20687;-70
2022/05/07 01:04:06;;;;;;;0.32;0.32;;;8.80;99.90;;;;;;5075986;28;20207;-70
2022/05/07 01:06:32;;;;;;;0.30;0.30;;;8.70;99.90;;;;;;5076080;28;20522;-71
2022/05/07 01:08:58;;;;;;;0.30;0.30;;;8.70;99.90;;;;;;5075868;28;20202;-70
2022/05/07 01:11:24;;;;;;;0.30;0.30;;;8.60;99.90;;;;;;5075577;28;20430;-70
2022/05/07 01:13:51;;;;;;;0.95;0.95;;;8.70;99.90;;;;;;5075952;28;20164;-70
2022/05/07 01:16:18;;;;;;;0.30;0.30;;;8.60;99.90;;;;;;5075845;28;20603;-70
2022/05/07 01:18:43;;;;;;;1.43;1.43;;;8.60;99.90;;;;;;5075910;28;20166;-70
2022/05/07 01:21:14;;;;;;;0.37;0.37;;;8.60;99.90;;;;;;5075474;28;20217;-71
2022/05/07 01:23:41;;;;;;;0.40;0.40;;;8.50;99.90;;;;;;5075617;28;20203;-70
2022/05/07 01:26:07;;;;;;;0.75;0.75;;;8.60;99.90;;;;;;5075640;28;20168;-70
2022/05/07 01:28:33;;;;;;;0.30;0.30;;;8.60;99.90;;;;;;5075819;28;20254;-69
2022/05/07 01:30:59;;;;;;;0.30;0.30;;;8.60;99.90;;;;;;5075284;28;20293;-69
2022/05/07 01:33:25;;;;;;;0.30;0.30;;;8.60;99.90;;;;;;5075496;28;20168;-68
2022/05/07 01:35:51;;;;;;;0.30;0.30;;;8.60;99.90;;;;;;5075585;28;20779;-70
2022/05/07 01:38:16;;;;;;;0.30;0.30;;;8.60;99.90;;;;;;5075306;28;20170;-70
2022/05/07 01:40:42;;;;;;;0.50;0.50;;;8.60;99.90;;;;;;5075414;28;20396;-71
2022/05/07 01:43:08;;;;;;;0.30;0.30;;;8.50;99.90;;;;;;5075191;28;20318;-68
2022/05/07 01:45:33;;;;;;;0.30;0.30;;;8.50;99.90;;;;;;5075400;28;20230;-71
2022/05/07 01:48:12;;;;;;;0.30;0.30;;;8.50;99.90;;;;;;5075330;28;20303;-70
2022/05/07 01:50:42;;;;;;;0.80;0.80;;;8.50;99.90;;;;;;5075144;28;20255;-70
2022/05/07 01:53:09;;;;;;;0.40;0.40;;;8.50;99.90;;;;;;5074941;28;20190;-70
2022/05/07 01:55:36;;;;;;;0.30;0.30;;;8.50;99.90;;;;;;5075121;28;20299;-70
2022/05/07 01:58:02;;;;;;;0.30;0.30;;;8.50;99.90;;;;;;5074960;28;20194;-70
2022/05/07 02:00:30;;;;;;;0.40;0.40;;;8.50;99.90;;;;;;5074884;28;20665;-69
2022/05/07 02:02:56;;;;;;;0.30;0.30;;;8.50;99.90;;;;;;5075014;28;20531;-70
2022/05/07 02:05:22;;;;;;;0.30;0.30;;;8.60;99.90;;;;;;5074734;28;20254;-70
2022/05/07 02:07:48;;;;;;;0.30;0.30;;;8.50;99.90;;;;;;5074772;28;20192;-69
2022/05/07 02:10:14;;;;;;;0.30;0.30;;;8.50;99.90;;;;;;5074591;28;20172;-69
2022/05/07 02:12:40;;;;;;;0.30;0.30;;;8.50;99.90;;;;;;5074652;28;20185;-71
2022/05/07 02:15:06;;;;;;;0.50;0.50;;;8.40;99.90;;;;;;5073335;28;20169;-70
2022/05/07 02:17:31;;;;;;;0.30;0.30;;;8.40;99.90;;;;;;5074731;28;20181;-71
2022/05/07 02:19:57;;;;;;;0.30;0.30;;;8.40;99.90;;;;;;5074781;28;20690;-70
2022/05/07 02:22:23;;;;;;;0.30;0.30;;;8.30;99.90;;;;;;5074333;28;20207;-69
2022/05/07 02:24:50;;;;;;;0.30;0.30;;;8.20;99.90;;;;;;5074410;28;20200;-69
2022/05/07 02:27:15;;;;;;;0.30;0.30;;;8.20;99.90;;;;;;5074551;28;20164;-69
2022/05/07 02:29:41;;;;;;;0.30;0.30;;;8.10;99.90;;;;;;5074500;28;20186;-68
2022/05/07 02:32:07;;;;;;;0.30;0.30;;;8.20;99.90;;;;;;5074282;28;20195;-69
2022/05/07 02:34:34;;;;;;;0.30;0.30;;;8.20;99.90;;;;;;5072989;28;20633;-70
2022/05/07 02:37:01;;;;;;;0.45;0.45;;;8.20;99.90;;;;;;5074242;28;20171;-69
2022/05/07 02:39:27;;;;;;;0.30;0.30;;;8.20;99.90;;;;;;5074135;28;20286;-71
2022/05/07 02:44:38;;;;;;;0.30;0.30;;;8.20;99.90;;;;;;5074099;28;20332;-70
2022/05/07 02:47:04;;;;;;;0.30;0.30;;;8.20;99.90;;;;;;5074036;28;20664;-70
2022/05/07 02:49:31;;;;;;;0.30;0.30;;;8.30;99.90;;;;;;5074039;28;20168;-71
2022/05/07 02:51:56;;;;;;;0.30;0.30;;;8.40;99.90;;;;;;5073630;28;20186;-69
2022/05/07 02:54:22;;;;;;;1.13;1.07;;;8.30;99.90;;;;;;5073952;28;20176;-71
2022/05/07 02:56:48;;;;;;;0.30;0.30;;;8.30;99.90;;;;;;5074008;28;20229;-70
2022/05/07 02:59:14;;;;;;;0.40;0.40;;;8.40;99.90;;;;;;5073960;28;20175;-70
2022/05/07 03:01:41;;;;;;;0.50;0.50;;;8.40;99.90;;;;;;5073575;28;20430;-69
2022/05/07 03:04:08;;;;;;;0.30;0.30;;;8.50;99.90;;;;;;5073722;28;20193;-71
2022/05/07 03:06:34;;;;;;;1.13;1.10;;;8.50;99.90;;;;;;5073809;28;20176;-70
2022/05/07 03:09:00;;;;;;;0.30;0.30;;;8.50;99.90;;;;;;5073897;28;20173;-70
2022/05/07 03:11:26;;;;;;;0.30;0.30;;;8.50;99.90;;;;;;5072840;28;20235;-69
2022/05/07 03:13:51;;;;;;;1.07;1.07;;;8.50;99.90;;;;;;5073568;28;20193;-70
2022/05/07 03:16:17;;;;;;;0.30;0.30;;;8.50;99.90;;;;;;5073876;28;20172;-70
2022/05/07 03:18:43;;;;;;;0.30;0.30;;;8.50;99.90;;;;;;5073634;28;20256;-71
2022/05/07 03:21:09;;;;;;;0.30;0.30;;;8.50;99.90;;;;;;5073596;28;20801;-70
2022/05/07 03:23:35;;;;;;;0.30;0.30;;;8.50;99.90;;;;;;5073615;28;20555;-70
2022/05/07 03:26:00;;;;;;;0.30;0.30;;;8.50;99.90;;;;;;5073692;28;20412;-71
2022/05/07 03:28:26;;;;;;;0.30;0.30;;;8.40;99.90;;;;;;5073544;28;20164;-70
2022/05/07 03:30:52;;;;;;;0.30;0.30;;;8.40;99.90;;;;;;5073250;28;20633;-71
2022/05/07 03:33:17;;;;;;;0.40;0.40;;;8.30;99.90;;;;;;5073469;28;20637;-71
2022/05/07 03:35:47;;;;;;;0.40;0.40;;;8.20;99.90;;;;;;5073819;28;20572;-69
2022/05/07 03:38:13;;;;;;;0.30;0.30;;;8.20;99.90;;;;;;5073502;28;20172;-70
2022/05/07 03:40:38;;;;;;;0.30;0.30;;;8.20;99.90;;;;;;5073260;28;20177;-70
2022/05/07 03:43:05;;;;;;;0.30;0.30;;;8.20;99.90;;;;;;5073263;28;20426;-69
2022/05/07 03:45:32;;;;;;;0.30;0.30;;;8.20;99.90;;;;;;5073213;28;20204;-70
2022/05/07 03:47:57;;;;;;;0.60;0.60;;;8.20;99.90;;;;;;5073328;28;20517;-69
2022/05/07 03:50:23;;;;;;;0.37;0.37;;;8.30;99.90;;;;;;5073059;28;20219;-71
2022/05/07 03:55:33;;;;;;;0.30;0.30;;;8.40;99.90;;;;;;5073373;28;20295;-71
2022/05/07 03:57:58;;;;;;;0.30;0.30;;;8.30;99.90;;;;;;5073159;28;20207;-71
2022/05/07 04:00:24;;;;;;;0.30;0.30;;;8.40;99.90;;;;;;5073028;28;20248;-70
2022/05/07 04:02:50;;;;;;;0.30;0.30;;;8.40;99.90;;;;;;5073116;28;20185;-69
2022/05/07 04:05:15;;;;;;;0.30;0.30;;;8.40;99.90;;;;;;5073203;28;20204;-70
2022/05/07 04:07:41;;;;;;;0.30;0.30;;;8.40;99.90;;;;;;5073247;28;20520;-70
2022/05/07 04:10:07;;;;;;;0.30;0.30;;;8.40;99.90;;;;;;5073000;28;20165;-70
2022/05/07 04:12:33;;;;;;;0.30;0.30;;;8.40;99.90;;;;;;5072959;28;20190;-70
2022/05/07 04:15:02;;;;;;;0.30;0.30;;;8.40;99.90;;;;;;5072994;28;20180;-69
2022/05/07 04:17:28;;;;;;;0.30;0.30;;;8.40;99.90;;;;;;5072998;28;20188;-71
2022/05/07 04:19:54;;;;;;;0.30;0.30;;;8.40;99.90;;;;;;5072897;28;20181;-69
2022/05/07 04:22:20;;;;;;;0.30;0.30;;;8.40;99.90;;;;;;5073617;28;20207;-70
2022/05/07 04:24:46;;;;;;;0.30;0.30;;;8.30;99.90;;;;;;5076574;28;20554;-70
2022/05/07 04:27:12;;;;;;;0.75;0.75;;;8.20;99.90;;;;;;5076653;28;20896;-70
2022/05/07 04:29:37;;;;;;;0.30;0.30;;;8.30;99.90;;;;;;5075629;28;20176;-69
2022/05/07 04:32:03;;;;;;;0.30;0.30;;;8.30;99.90;;;;;;5076450;28;20280;-70
2022/05/07 04:34:29;;;;;;;0.40;0.40;;;8.30;99.90;;;;;;5076459;28;20541;-71
2022/05/07 04:36:56;;;;;;;0.30;0.30;;;8.30;99.90;;;;;;5075347;28;20361;-70
2022/05/07 04:39:22;;;;;;;0.30;0.30;;;8.20;99.90;;;;;;5076871;28;20579;-68
2022/05/07 04:41:47;;;;;;;0.30;0.30;;;8.30;99.90;;;;;;5074908;28;20204;-69
2022/05/07 04:44:13;;;;;;;0.30;0.30;;;8.30;99.90;;;;;;5076462;28;20966;-70
2022/05/07 04:46:42;;;;;;;0.60;0.60;;;8.30;99.90;;;;;;5076270;28;20166;-69
2022/05/07 04:49:07;;;;;;;1.38;0.88;;;8.40;99.90;;;;;;5076404;28;20170;-70
2022/05/07 04:51:33;;;;;;;0.40;0.40;;;8.50;99.90;;;;;;5075984;28;20201;-71
2022/05/07 04:53:58;;;;;;;0.30;0.30;;;8.60;99.90;;;;;;5076100;28;20307;-70
2022/05/07 04:56:27;;;;;;;0.30;0.30;;;8.60;99.90;;;;;;5076158;28;20543;-69
2022/05/07 04:58:53;;;;;;;0.30;0.30;;;8.60;99.90;;;;;;5076113;28;20181;-71
2022/05/07 05:01:18;;;;;;;0.30;0.30;;;8.80;99.90;;;;;;5075923;28;20681;-69
2022/05/07 05:03:44;;;;;;;0.30;0.30;;;8.90;99.90;;;;;;5076004;28;20558;-69
2022/05/07 05:06:10;;;;;;;0.83;0.83;;;9.00;99.90;;;;;;5075773;28;20219;-69
2022/05/07 05:08:35;;;;;;;0.77;0.77;;;9.20;99.90;;;;;;5073395;28;20691;-71
2022/05/07 05:11:01;;;;;;;0.30;0.30;;;9.30;99.90;;;;;;5074551;28;20173;-70
2022/05/07 05:13:26;;;;;;;1.33;1.23;;;9.40;99.90;;;;;;5075848;28;20166;-69
2022/05/07 05:15:52;;;;;;;0.30;0.30;;;9.70;99.90;;;;;;5074284;28;20166;-69
2022/05/07 05:18:18;;;;;;;0.30;0.30;;;10.00;99.90;;;;;;5074480;28;20528;-71
2022/05/07 05:20:43;;;;;;;0.40;0.40;;;10.50;99.90;;;;;;5075571;28;20172;-71
2022/05/07 05:23:09;;;;;;;0.30;0.30;;;11.10;99.90;;;;;;5074582;28;20284;-73
2022/05/07 05:25:35;;;;;;;0.40;0.40;;;11.60;99.90;;;;;;5073598;28;20204;-72
2022/05/07 05:28:01;;;;;;;0.30;0.30;;;11.90;99.90;;;;;;5075598;28;20524;-71
2022/05/07 05:30:27;;;;;;;0.30;0.30;;;12.50;99.90;;;;;;5074755;28;20445;-70
2022/05/07 05:32:52;;;;;;;1.27;1.27;;;13.40;99.90;;;;;;5071677;28;21020;-71
2022/05/07 05:35:18;;;;;;;0.73;0.73;;;14.00;99.90;;;;;;5075455;28;20563;-70
2022/05/07 05:37:43;;;;;;;0.30;0.30;;;14.70;99.90;;;;;;5075290;28;20175;-73
2022/05/07 05:40:09;;;;;;;2.10;1.80;;;15.30;99.90;;;;;;5075282;28;20169;-71
2022/05/07 05:42:35;;;;;;;1.27;0.90;;;15.90;99.60;;;;;;5075281;28;20193;-71
2022/05/07 05:45:01;;;;;;;0.30;0.30;;;16.30;95.20;;;;;;5075219;28;20538;-71
2022/05/07 05:47:26;;;;;;;0.40;0.40;;;16.70;94.30;;;;;;5075327;28;20166;-73
2022/05/07 05:49:52;;;;;;;0.30;0.30;;;17.30;93.30;;;;;;5074959;28;20176;-73
2022/05/07 05:52:18;;;;;;;0.30;0.30;;;17.80;91.50;;;;;;5074898;28;20690;-72
2022/05/07 05:54:45;;;;;;;0.50;0.50;;;18.40;88.90;;;;;;5075343;28;20434;-72
2022/05/07 05:57:11;;;;;;;0.70;0.70;;;18.80;86.70;;;;;;5074939;28;20417;-71
2022/05/07 05:59:37;;;;;;;0.30;0.30;;;19.30;81.50;;;;;;5074678;28;20490;-72
2022/05/07 06:02:03;;;;;;;0.30;0.30;;;20.00;80.60;;;;;;5074326;28;20431;-70
2022/05/07 06:04:29;;;;;;;0.30;0.30;;;20.70;78.50;;;;;;5073380;28;20426;-69
2022/05/07 06:06:54;;;;;;;0.30;0.30;;;21.60;73.30;;;;;;5072987;28;20441;-70
2022/05/07 06:09:21;;;;;;;0.70;0.53;;;22.40;69.60;;;;;;5073814;28;20531;-70
2022/05/07 06:11:47;;;;;;;0.30;0.30;;;23.20;69.30;;;;;;5074381;28;20185;-70
2022/05/07 06:14:13;;;;;;;0.50;0.50;;;24.00;65.50;;;;;;5074849;28;20452;-69
2022/05/07 06:16:38;;;;;;;0.60;0.60;;;24.60;61.80;;;;;;5075070;28;20518;-69
2022/05/07 06:19:05;;;;;;;0.30;0.30;;;25.00;61.30;;;;;;5075127;28;20173;-68
2022/05/07 06:21:31;;;;;;;0.30;0.30;;;25.60;58.50;;;;;;5074440;28;20189;-69
2022/05/07 06:27:28;;;;;;;0.40;0.40;;;26.40;56.60;;;;;;5072336;28;20501;-70
2022/05/07 06:29:26;;;;;;;0.93;0.60;;;26.30;52.80;;;;;;5074080;28;20782;-71
2022/05/07 06:31:52;;;;;;;0.30;0.30;;;25.90;51.50;;;;;;5072502;28;20514;-70
2022/05/07 06:34:22;;;;;;;0.30;0.30;;;26.00;50.40;;;;;;5073227;28;20179;-70
2022/05/07 06:36:47;;;;;;;0.83;0.60;;;26.40;50.10;;;;;;5074453;28;20903;-69
2022/05/07 06:39:13;;;;;;;0.43;0.43;;;26.40;47.40;;;;;;5074007;28;20408;-69
2022/05/07 06:41:40;;;;;;;0.30;0.30;;;26.80;48.80;;;;;;5070974;28;20685;-69
2022/05/07 06:44:05;;;;;;;0.40;0.40;;;27.10;46.00;;;;;;5072152;28;20188;-70
2022/05/07 06:46:31;;;;;;;0.40;0.40;;;26.10;44.70;;;;;;5073262;28;20478;-69
2022/05/07 06:48:57;;;;;;;0.40;0.40;;;25.50;47.10;;;;;;5073923;28;20549;-70
2022/05/07 06:51:24;;;;;;;0.40;0.40;;;25.80;47.50;;;;;;5073103;28;20264;-69
2022/05/07 06:53:49;;;;;;;0.40;0.40;;;25.30;47.90;;;;;;5072159;28;20184;-69
2022/05/07 06:56:15;;;;;;;0.50;0.40;;;25.40;47.60;;;;;;5073816;28;20404;-69
2022/05/07 06:58:41;;;;;;;1.27;0.60;;;24.90;46.50;;;;;;5072996;28;20183;-71
2022/05/07 07:01:08;;;;;;;0.50;0.50;;;24.00;48.00;;;;;;5072030;28;20386;-69
2022/05/07 07:03:34;;;;;;;0.40;0.40;;;23.30;51.00;;;;;;5074015;28;20404;-69
2022/05/07 07:06:00;;;;;;;0.50;0.50;;;22.20;51.00;;;;;;5072697;28;20818;-69
2022/05/07 07:08:29;;;;;;;0.37;0.37;;;22.10;52.20;;;;;;5072204;28;20177;-69
2022/05/07 07:10:54;;;;;;;0.40;0.40;;;22.30;52.50;;;;;;5072719;28;20412;-68
2022/05/07 07:13:20;;;;;;;0.30;0.30;;;23.00;50.80;;;;;;5071228;28;20411;-70
2022/05/07 07:15:46;;;;;;;0.37;0.37;;;23.80;49.90;;;;;;5072525;28;20196;-68
2022/05/07 07:18:11;;;;;;;0.40;0.40;;;24.30;48.80;;;;;;5073815;28;20180;-71
2022/05/07 07:20:41;;;;;;;0.30;0.30;;;25.10;48.40;;;;;;5071714;28;20343;-70
2022/05/07 07:23:16;;;;;;;1.10;1.10;;;25.80;48.40;;;;;;5069799;28;20630;-70
2022/05/07 07:25:43;;;;;;;2.23;2.13;;;26.50;45.20;;;;;;5071348;28;20455;-70
2022/05/07 07:28:11;;;;;;;0.37;0.37;;;27.10;44.50;;;;;;5070354;28;20443;-70
2022/05/07 07:30:38;;;;;;;1.53;1.43;;;27.40;44.90;;;;;;5073134;28;20404;-69
2022/05/07 07:33:05;;;;;;;0.30;0.30;;;28.50;41.70;;;;;;5073705;28;20456;-69
2022/05/07 07:35:31;;;;;;;0.30;0.30;;;28.30;40.50;;;;;;5071076;28;20403;-69
2022/05/07 07:37:57;;;;;;;0.40;0.40;;;28.00;42.10;;;;;;5073572;28;20410;-70
2022/05/07 07:40:23;;;;;;;0.60;0.60;;;28.30;41.20;;;;;;5073651;28;20878;-67
2022/05/07 07:42:49;;;;;;;0.77;0.77;;;27.60;42.70;;;;;;5073443;28;20189;-68
2022/05/07 07:48:00;;;;;;;0.50;0.50;;;27.00;41.30;;;;;;5073671;28;20679;-69
2022/05/07 07:50:29;;;;;;;0.40;0.40;;;26.50;45.00;;;;;;5072501;28;20412;-67
2022/05/07 07:52:57;;;;;;;0.50;0.50;;;27.00;41.50;;;;;;5071013;28;20514;-71
2022/05/07 07:55:23;;;;;;;0.77;0.73;;;27.30;41.90;;;;;;5072407;28;20408;-72
2022/05/07 07:57:52;;;;;;;1.07;1.07;;;27.50;41.80;;;;;;5075023;28;20502;-71
2022/05/07 08:00:18;;;;;;;1.33;1.30;;;27.10;40.80;;;;;;5077038;28;20776;-72
2022/05/07 08:02:57;;;;;;;0.70;0.70;;;26.50;41.40;;;;;;5077526;28;20435;-72
2022/05/07 08:05:33;;;;;;;0.47;0.47;;;27.00;41.00;;;;;;5077477;28;20212;-73
2022/05/07 08:13:33;;;;;;;0.40;0.40;;;25.10;43.80;;;;;;5076894;28;20438;-73
2022/05/07 08:16:00;;;;;;;0.30;0.30;;;24.80;45.20;;;;;;5076830;28;20407;-72
2022/05/07 08:18:27;;;;;;;0.30;0.30;;;25.50;46.00;;;;;;5076827;28;20412;-73
2022/05/07 08:20:53;;;;;;;0.47;0.47;;;25.90;41.80;;;;;;5076709;28;20411;-73
2022/05/07 08:23:19;;;;;;;0.80;0.80;;;25.70;42.50;;;;;;5076608;28;20519;-73
2022/05/07 08:25:45;;;;;;;0.30;0.30;;;25.30;42.70;;;;;;5076832;28;20553;-71
2022/05/07 08:28:10;;;;;;;0.70;0.70;;;25.20;43.00;;;;;;5077210;28;20177;-72
2022/05/07 08:30:36;;;;;;;0.80;0.70;;;24.90;44.00;;;;;;5076622;28;20411;-73
2022/05/07 08:33:06;;;;;;;0.30;0.30;;;24.40;43.30;;;;;;5076711;28;20233;-72
2022/05/07 08:35:32;;;;;;;0.60;0.60;;;25.50;43.80;;;;;;5076796;28;20239;-71
2022/05/07 08:37:57;;;;;;;0.30;0.30;;;25.20;43.10;;;;;;5077056;28;20416;-71
2022/05/07 08:40:24;;;;;;;0.40;0.40;;;25.70;43.70;;;;;;5076659;28;20645;-71
2022/05/07 08:42:50;;;;;;;0.40;0.40;;;26.50;43.30;;;;;;5076394;28;20662;-72
2022/05/07 08:45:16;;;;;;;0.77;0.70;;;27.20;42.80;;;;;;5075959;28;20528;-73
2022/05/07 08:47:43;;;;;;;0.67;0.67;;;27.50;39.70;;;;;;5076118;28;20399;-73
2022/05/07 08:50:11;;;;;;;0.60;0.53;;;28.40;40.60;;;;;;5076040;28;20176;-73
2022/05/07 08:52:42;;;;;;;0.30;0.30;;;28.70;40.40;;;;;;5076080;28;20420;-73
2022/05/07 08:55:16;;;;;;;0.50;0.50;;;29.00;38.40;;;;;;5076125;28;20418;-73
2022/05/07 08:57:44;;;;;;;0.30;0.30;;;29.80;37.10;;;;;;5075931;28;20404;-72
2022/05/07 09:00:11;;;;;;;0.80;0.80;;;29.80;36.00;;;;;;5075661;28;20419;-72
2022/05/07 09:02:39;;;;;;;0.40;0.40;;;29.00;36.20;;;;;;5075961;28;20434;-72
2022/05/07 09:05:05;;;;;;;0.30;0.30;;;28.30;38.20;;;;;;5075498;28;20452;-71
2022/05/07 09:07:31;;;;;;;0.50;0.50;;;27.80;39.70;;;;;;5072271;28;20908;-72
2022/05/07 09:09:57;;;;;;;0.30;0.30;;;27.40;39.00;;;;;;5075871;28;20415;-70
2022/05/07 09:12:25;;;;;;;0.50;0.50;;;27.20;37.40;;;;;;5074317;28;20662;-69
2022/05/07 09:14:51;;;;;;;0.30;0.30;;;26.40;38.10;;;;;;5074402;28;20207;-73
2022/05/07 09:17:19;;;;;;;0.40;0.40;;;25.50;41.10;;;;;;5076084;28;20428;-72
2022/05/07 09:19:45;;;;;;;0.30;0.30;;;24.60;41.00;;;;;;5074215;28;20184;-70
2022/05/07 09:22:11;;;;;;;0.30;0.30;;;23.50;42.10;;;;;;5074181;28;20431;-71
2022/05/07 09:24:40;;;;;;;0.50;0.50;;;23.50;44.70;;;;;;5074526;28;20285;-71
2022/05/07 09:27:06;;;;;;;1.40;0.60;;;24.90;42.70;;;;;;5074172;28;20900;-72
2022/05/07 09:29:33;;;;;;;3.17;3.03;;;26.10;40.80;;;;;;5073468;28;20415;-73
2022/05/07 09:32:10;;;;;;;0.30;0.30;;;25.90;37.40;;;;;;5075556;28;20431;-71
2022/05/07 09:37:36;;;;;;;0.30;0.30;;;25.20;38.70;;;;;;5075611;28;20744;-72
2022/05/07 09:40:07;;;;;;;0.30;0.30;;;24.50;39.50;;;;;;5074152;28;20512;-71
2022/05/07 09:42:34;;;;;;;0.50;0.40;;;23.90;42.60;;;;;;5073497;28;20475;-73
2022/05/07 09:45:01;;;;;;;0.30;0.30;;;24.30;40.00;;;;;;5073068;28;20929;-70
2022/05/07 09:47:30;;;;;;;0.30;0.30;;;24.30;40.60;;;;;;5075336;28;20407;-71
2022/05/07 09:57:30;;;;;;;0.30;0.30;;;25.50;40.40;;;;;;5075320;28;20477;-72
2022/05/07 09:58:20;;;;;;;0.30;0.30;;;24.70;40.80;;;;;;5083474;28;20420;-71
2022/05/07 10:01:08;;;;;;;0.30;0.30;;;24.80;40.80;;;;;;5074820;28;20491;-71
2022/05/07 10:03:52;;;;;;;0.30;0.30;;;25.00;41.50;;;;;;5074858;28;20871;-71
2022/05/07 10:06:29;;;;;;;0.30;0.30;;;25.70;40.60;;;;;;5074892;28;20412;-73
2022/05/07 10:09:28;;;;;;;0.30;0.30;;;26.60;38.80;;;;;;5074764;28;20423;-72
2022/05/07 10:11:56;;;;;;;0.53;0.53;;;26.70;37.50;;;;;;5073305;28;20424;-70
2022/05/07 10:14:30;;;;;;;0.40;0.40;;;26.60;39.50;;;;;;5073246;28;20411;-73
2022/05/07 10:17:09;;;;;;;0.80;0.80;;;26.40;38.40;;;;;;5073280;28;20420;-72
2022/05/07 10:19:44;;;;;;;0.30;0.30;;;26.20;38.90;;;;;;5074749;28;20408;-72
2022/05/07 10:22:26;;;;;;;0.30;0.30;;;26.30;38.20;;;;;;5072906;28;20430;-72
2022/05/07 10:25:11;;;;;;;0.30;0.30;;;26.30;38.30;;;;;;5073539;28;20944;-72
2022/05/07 10:27:42;;;;;;;0.40;0.40;;;26.40;39.50;;;;;;5074746;28;20446;-71
2022/05/07 10:30:09;;;;;;;0.30;0.30;;;26.10;38.20;;;;;;5074281;28;20498;-73
2022/05/07 10:32:57;;;;;;;0.90;0.70;;;25.90;39.40;;;;;;5072929;28;20470;-72
2022/05/07 10:35:42;;;;;;;1.27;1.27;;;25.20;39.90;;;;;;5074373;28;20435;-73
2022/05/07 10:38:10;;;;;;;0.30;0.30;;;24.50;41.10;;;;;;5074116;28;20483;-71
2022/05/07 10:40:35;;;;;;;0.70;0.70;;;24.10;42.80;;;;;;5074046;28;20412;-71
2022/05/07 10:43:06;;;;;;;0.40;0.40;;;23.70;42.50;;;;;;5073973;28;20450;-72
2022/05/07 10:45:40;;;;;;;0.30;0.30;;;23.30;41.90;;;;;;5073780;28;20228;-72
2022/05/07 10:48:19;;;;;;;0.30;0.30;;;22.70;42.70;;;;;;5073956;28;20482;-72
2022/05/07 10:50:59;;;;;;;0.30;0.30;;;21.70;44.80;;;;;;5074123;28;20405;-71
2022/05/07 10:53:35;;;;;;;0.30;0.30;;;21.00;46.20;;;;;;5073965;28;20795;-71
2022/05/07 10:56:01;;;;;;;0.30;0.30;;;21.10;47.80;;;;;;5074135;28;20765;-70
2022/05/07 10:58:28;;;;;;;0.30;0.30;;;21.30;48.20;;;;;;5073956;28;20379;-72
2022/05/07 11:00:57;;;;;;;0.30;0.30;;;21.30;46.50;;;;;;5073516;28;20170;-71
2022/05/07 11:03:27;;;;;;;0.30;0.30;;;21.40;47.00;;;;;;5073797;28;20405;-73
2022/05/07 11:06:00;;;;;;;0.30;0.30;;;21.10;45.90;;;;;;5073667;28;20501;-71
2022/05/07 11:08:29;;;;;;;0.47;0.47;;;20.80;47.40;;;;;;5073677;28;20398;-72
2022/05/07 11:11:09;;;;;;;0.30;0.30;;;20.60;47.90;;;;;;5073594;28;20468;-70
2022/05/07 11:13:45;;;;;;;0.40;0.40;;;20.50;49.30;;;;;;5073674;28;20412;-70
2022/05/07 11:16:11;;;;;;;0.30;0.30;;;20.60;49.20;;;;;;5073459;28;20400;-71
2022/05/07 11:18:40;;;;;;;0.30;0.30;;;21.00;47.50;;;;;;5073737;28;20934;-71
2022/05/07 11:21:08;;;;;;;0.30;0.30;;;21.30;46.60;;;;;;5073319;28;20401;-70
2022/05/07 11:23:39;;;;;;;0.30;0.30;;;21.70;46.20;;;;;;5073449;28;20416;-70
2022/05/07 11:26:16;;;;;;;2.77;1.10;;;21.50;46.20;;;;;;5073569;28;20414;-70
2022/05/07 11:28:44;;;;;;;0.40;0.40;;;21.40;48.10;;;;;;5075227;28;20374;-70
2022/05/07 11:31:11;;;;;;;0.40;0.40;;;21.80;47.20;;;;;;5071695;28;20373;-70
2022/05/07 11:33:38;;;;;;;0.30;0.30;;;21.90;45.50;;;;;;5072046;28;20465;-71
2022/05/07 11:36:08;;;;;;;0.30;0.30;;;22.20;46.70;;;;;;5072836;28;20378;-71
2022/05/07 11:38:35;;;;;;;0.30;0.30;;;22.10;46.70;;;;;;5072715;28;20452;-70
2022/05/07 11:41:14;;;;;;;0.30;0.30;;;21.90;47.00;;;;;;5073142;28;20448;-69
2022/05/07 11:46:25;;;;;;;0.40;0.40;;;22.10;49.20;;;;;;5074020;28;20402;-70
2022/05/07 11:48:51;;;;;;;0.30;0.30;;;22.10;44.00;;;;;;5073309;28;20398;-70
2022/05/07 11:51:27;;;;;;;0.30;0.30;;;22.00;44.00;;;;;;5072929;28;20896;-71
2022/05/07 11:53:53;;;;;;;0.30;0.30;;;21.70;44.00;;;;;;5073141;28;20407;-71
2022/05/07 11:56:19;;;;;;;0.60;0.60;;;21.50;44.10;;;;;;5073317;28;20393;-71
2022/05/07 11:58:47;;;;;;;0.30;0.30;;;21.50;44.50;;;;;;5073262;28;20224;-71
2022/05/07 12:01:31;;;;;;;0.40;0.40;;;21.60;43.10;;;;;;5071600;28;20185;-71
2022/05/07 12:04:09;;;;;;;0.43;0.43;;;21.60;42.80;;;;;;5073170;28;20442;-70
2022/05/07 12:06:36;;;;;;;0.30;0.30;;;21.90;43.20;;;;;;5071970;28;20389;-71
2022/05/07 12:09:13;;;;;;;0.30;0.30;;;22.20;42.20;;;;;;5073181;28;20419;-71
2022/05/07 12:11:42;;;;;;;0.40;0.40;;;22.30;42.10;;;;;;5072822;28;20554;-71
2022/05/07 12:14:08;;;;;;;0.40;0.40;;;22.40;43.30;;;;;;5073032;28;20899;-70
2022/05/07 12:19:29;;;;;;;0.50;0.50;;;21.50;45.00;;;;;;5073166;28;20485;-70
2022/05/07 12:30:08;;;;;;;0.60;0.60;;;20.50;47.00;;;;;;5072803;28;20424;-71
2022/05/07 12:32:33;;;;;;;0.30;0.30;;;20.40;44.30;;;;;;5072564;28;20544;-70
2022/05/07 12:34:59;;;;;;;1.00;1.00;;;20.50;45.50;;;;;;5072706;28;20956;-71
2022/05/07 12:37:24;;;;;;;0.40;0.40;;;20.90;46.20;;;;;;5073116;28;20256;-71
2022/05/07 12:39:50;;;;;;;0.40;0.40;;;21.20;45.60;;;;;;5072786;28;20168;-71
2022/05/07 12:42:16;;;;;;;0.47;0.47;;;21.50;47.50;;;;;;5072771;28;20268;-71
2022/05/07 12:44:43;;;;;;;0.30;0.30;;;21.30;45.50;;;;;;5075340;28;20624;-71
2022/05/07 12:47:09;;;;;;;0.40;0.40;;;21.30;47.00;;;;;;5076225;28;20619;-70
2022/05/07 12:49:34;;;;;;;0.30;0.30;;;21.10;47.10;;;;;;5076325;28;20422;-71
2022/05/07 12:52:02;;;;;;;0.30;0.30;;;21.00;46.60;;;;;;5076099;28;20192;-71
2022/05/07 12:54:29;;;;;;;0.30;0.30;;;20.50;45.80;;;;;;5076299;28;20633;-70
2022/05/07 12:56:55;;;;;;;0.50;0.50;;;20.30;47.60;;;;;;5075916;28;20488;-71
2022/05/07 12:59:20;;;;;;;0.40;0.40;;;19.90;46.10;;;;;;5075960;28;20907;-69
2022/05/07 13:01:46;;;;;;;0.30;0.30;;;19.80;49.20;;;;;;5075758;28;20196;-70
2022/05/07 13:04:12;;;;;;;0.30;0.30;;;19.70;47.70;;;;;;5076037;28;20203;-70
2022/05/07 13:06:38;;;;;;;0.30;0.30;;;19.50;47.20;;;;;;5076129;28;20779;-71
2022/05/07 13:09:04;;;;;;;0.40;0.40;;;19.70;47.70;;;;;;5076095;28;20162;-70
2022/05/07 13:11:30;;;;;;;0.30;0.30;;;19.80;47.40;;;;;;5074349;28;20432;-70
2022/05/07 13:13:55;;;;;;;0.30;0.30;;;20.10;46.50;;;;;;5076057;28;20170;-70
2022/05/07 13:16:22;;;;;;;0.30;0.30;;;20.30;47.60;;;;;;5075798;28;20404;-71
2022/05/07 13:18:47;;;;;;;0.30;0.30;;;20.40;48.60;;;;;;5075797;28;20692;-69
2022/05/07 13:21:13;;;;;;;0.30;0.30;;;20.40;47.40;;;;;;5073615;28;20491;-70
2022/05/07 13:23:39;;;;;;;0.40;0.40;;;20.50;46.50;;;;;;5074713;28;20556;-71
2022/05/07 13:26:05;;;;;;;0.40;0.40;;;20.60;46.30;;;;;;5075689;28;20220;-72
2022/05/07 13:28:31;;;;;;;0.30;0.30;;;20.60;46.00;;;;;;5075783;28;20952;-70
2022/05/07 13:30:58;;;;;;;0.30;0.30;;;20.70;46.90;;;;;;5075495;28;20799;-73
2022/05/07 13:33:24;;;;;;;0.50;0.50;;;20.70;48.70;;;;;;5075633;28;20910;-71